Potsdam, NY

44° 42' 44"N, 74° 57' 12"W, Elevation 460 ft.
Eastern Time

Hourly observations for the last 72 hours

Date Time Temperature (°F) Humi-
dity

(%)
Wind
(mph)
Pressure Rain (in)
Air Dew 6 Hour 1 Hr 3 Hr 6 Hr Day
Alt
(in)
Sea
Level

(mb)
Max Min
19 09:00 47.9 34.3 59 Calm 29.64 1003.6 0.00
19 08:00 43.7 28.1 43.7 43.7 54 Calm 29.66 1004.3 0.00
19 07:00 43.7 28.1 54 Calm 29.68 1005.0 0.00
19 06:00 43.7 28.1 54 Calm 29.69 1005.4 0.00
19 05:00 43.7 28.1 54 Calm 29.70 1005.8 0.00
19 04:00 43.7 28.1 54 Calm 29.73 1006.7 0.00
19 03:00 43.7 28.1 54 Calm 29.75 1007.3 0.00
19 02:00 43.7 28.1 43.7 43.7 54 Calm 29.77 1008.0 0.00
19 01:00 43.7 28.1 54 Calm 29.78 1008.5 0.00
19 00:00 43.7 28.1 54 Calm 29.78 1008.7 0.00
18 23:00 43.7 28.1 54 Calm 29.79 1008.9 0.00
18 22:00 43.7 28.1 54 Calm 29.80 1009.2 0.00
18 21:00 43.7 28.1 54 Calm 29.81 1009.4 0.00
18 20:00 43.7 28.1 51.6 43.7 54 Calm 29.79 1008.9 0.00
18 19:00 45.9 27.8 49 Calm 29.78 1008.4 0.00
18 18:00 48.5 26.5 42 Calm 29.77 1008.2 0.00
18 17:00 48.6 25.4 40 Calm 29.78 1008.4 0.00
18 16:00 48.5 25.9 41 Calm 29.79 1008.8 0.00
18 15:00 50.9 26.2 38 Calm 29.80 1009.3 0.00
18 14:00 46.8 24.9 46.8 36.7 42 Calm 29.83 1010.2 0.00
18 13:00 46.2 23.8 41 Calm 29.85 1011.0 0.00
18 12:00 45.4 25.8 46 Calm 29.88 1011.8 0.00
18 11:00 45.0 24.9 45 Calm 29.89 1012.1 0.00
18 10:00 42.4 26.9 54 Calm 29.90 1012.5 0.00
18 09:00 37.7 25.9 62 Calm 29.90 1012.5 0.00
18 08:00 39.4 24.1 39.4 39.4 54 Calm 29.89 1012.2 0.00
18 07:00 39.4 24.1 54 Calm 29.88 1012.0 0.00
18 06:00 39.4 24.1 54 Calm 29.87 1011.4 0.00
18 05:00 39.4 24.1 54 Calm 29.87 1011.5 0.00
18 04:00 39.4 24.1 54 Calm 29.87 1011.6 0.00
18 03:00 39.4 24.1 54 Calm 29.89 1012.1 0.00
18 02:00 39.4 24.1 39.4 39.4 54 Calm 29.90 1012.7 0.00
18 01:00 39.4 24.1 54 Calm 29.93 1013.7 0.00
18 00:00 39.4 24.1 54 Calm 29.95 1014.2 0.00
17 23:00 39.4 24.1 54 Calm 29.96 1014.7 0.00
17 22:00 39.4 24.1 54 Calm 29.98 1015.3 0.00
17 21:00 39.4 24.1 54 Calm 29.99 1015.7 0.00
17 20:00 39.4 24.1 43.2 39.4 54 Calm 29.97 1015.0 0.00
17 19:00 40.0 25.6 56 Calm 29.97 1015.1 0.00
17 18:00 41.6 27.1 56 Calm 29.98 1015.4 0.00
17 17:00 42.7 24.9 49 Calm 29.99 1015.5 0.00
17 16:00 41.9 24.6 50 Calm 30.01 1016.2 0.00
17 15:00 41.7 24.9 51 Calm 30.04 1017.4 0.00
17 14:00 41.7 24.9 41.7 33.1 51 Calm 30.06 1018.1 0.00
17 13:00 40.7 24.9 53 Calm 30.08 1018.8 0.00
17 12:00 39.1 24.3 55 Calm 30.12 1019.9 0.00
17 11:00 37.4 25.6 62 Calm 30.13 1020.4 0.00
17 10:00 36.1 25.8 66 Calm 30.14 1020.6 0.00
17 09:00 33.9 27.1 76 Calm 30.15 1020.9 0.00
17 08:00 35.4 26.6 35.4 35.4 70 Calm 30.15 1021.0 0.00
17 07:00 35.4 26.6 70 Calm 30.14 1020.6 0.00
17 06:00 35.4 26.6 70 Calm 30.12 1019.9 0.00
17 05:00 35.4 26.6 70 Calm 30.11 1019.6 0.00
17 04:00 35.4 26.6 70 Calm 30.11 1019.7 0.00
17 03:00 35.4 26.6 70 Calm 30.12 1020.0 0.00
17 02:00 35.4 26.6 35.4 35.4 70 Calm 30.12 1020.0 0.00
17 01:00 35.4 26.6 70 Calm 30.12 1020.0 0.00
17 00:00 35.4 26.6 70 Calm 30.10 1019.5 0.00
16 23:00 35.4 26.6 70 Calm 30.09 1019.1 0.00
16 22:00 35.4 26.6 70 Calm 30.09 1018.9 0.00
16 21:00 35.4 26.6 70 Calm 30.07 1018.3 0.00
16 20:00 35.4 26.6 41.4 32.8 70 Calm 30.06 1017.8 0.00
16 19:00 35.5 26.7 70 Calm 30.04 1017.3 0.00
16 18:00 35.1 27.7 74 Calm 30.05 1017.5 0.00
16 17:00 39.1 21.5 49 Calm 30.02 1016.7 0.00
16 16:00 39.5 19.9 45 Calm 30.02 1016.5 0.00
16 15:00 39.8 22.2 49 Calm 30.02 1016.7 0.00
16 14:00 39.7 20.1 42.0 32.1 45 Calm 30.02 1016.8 0.00
16 13:00 38.5 21.5 50 Calm 30.03 1016.9 0.00
16 12:00 39.2 22.1 50 Calm 30.03 1017.0 0.00
16 11:00 38.0 23.7 56 Calm 30.04 1017.3 0.00
16 10:00 35.9 25.3 65 Calm 30.05 1017.5 0.00

Data generated by WxSolution Version 1.9.1.5, Build 2018.05.20.